sensor_id;sensor_type;location;lat;lon;timestamp;P1;durP1;ratioP1;P2;durP2;ratioP2
30337;SDS011;17143;51.888;5.408;2023-03-01T00:00:02;7.80;;;4.97;;
30337;SDS011;17143;51.888;5.408;2023-03-01T00:15:13;7.03;;;4.90;;
30337;SDS011;17143;51.888;5.408;2023-03-01T00:30:15;9.87;;;5.53;;
30337;SDS011;17143;51.888;5.408;2023-03-01T00:45:17;7.40;;;4.80;;
30337;SDS011;17143;51.888;5.408;2023-03-01T01:00:20;9.13;;;5.40;;
30337;SDS011;17143;51.888;5.408;2023-03-01T01:15:23;10.83;;;5.30;;
30337;SDS011;17143;51.888;5.408;2023-03-01T01:30:25;7.33;;;4.70;;
30337;SDS011;17143;51.888;5.408;2023-03-01T01:45:28;8.70;;;5.03;;
30337;SDS011;17143;51.888;5.408;2023-03-01T02:00:34;8.93;;;4.70;;
30337;SDS011;17143;51.888;5.408;2023-03-01T02:15:36;7.40;;;5.03;;
30337;SDS011;17143;51.888;5.408;2023-03-01T02:30:40;8.17;;;5.20;;
30337;SDS011;17143;51.888;5.408;2023-03-01T02:45:47;6.50;;;4.37;;
30337;SDS011;17143;51.888;5.408;2023-03-01T03:00:49;6.50;;;4.63;;
30337;SDS011;17143;51.888;5.408;2023-03-01T03:15:55;7.17;;;3.97;;
30337;SDS011;17143;51.888;5.408;2023-03-01T03:30:58;9.83;;;4.40;;
30337;SDS011;17143;51.888;5.408;2023-03-01T03:46:00;7.50;;;4.10;;
30337;SDS011;17143;51.888;5.408;2023-03-01T04:01:03;5.93;;;3.90;;
30337;SDS011;17143;51.888;5.408;2023-03-01T04:16:05;6.23;;;4.07;;
30337;SDS011;17143;51.888;5.408;2023-03-01T04:31:08;9.20;;;4.30;;
30337;SDS011;17143;51.888;5.408;2023-03-01T04:46:13;7.10;;;4.13;;
30337;SDS011;17143;51.888;5.408;2023-03-01T05:01:18;8.10;;;4.60;;
30337;SDS011;17143;51.888;5.408;2023-03-01T05:16:22;6.90;;;4.50;;
30337;SDS011;17143;51.888;5.408;2023-03-01T05:31:24;7.50;;;4.53;;
30337;SDS011;17143;51.888;5.408;2023-03-01T05:46:26;8.03;;;4.83;;
30337;SDS011;17143;51.888;5.408;2023-03-01T06:01:28;8.30;;;5.10;;
30337;SDS011;17143;51.888;5.408;2023-03-01T06:16:30;7.00;;;3.83;;
30337;SDS011;17143;51.888;5.408;2023-03-01T06:31:32;5.80;;;3.93;;
30337;SDS011;17143;51.888;5.408;2023-03-01T06:46:34;7.60;;;4.43;;
30337;SDS011;17143;51.888;5.408;2023-03-01T07:01:36;8.93;;;3.63;;
30337;SDS011;17143;51.888;5.408;2023-03-01T07:16:38;6.47;;;4.20;;
30337;SDS011;17143;51.888;5.408;2023-03-01T07:31:40;8.70;;;4.27;;
30337;SDS011;17143;51.888;5.408;2023-03-01T07:46:42;5.03;;;3.83;;
30337;SDS011;17143;51.888;5.408;2023-03-01T08:01:44;27.17;;;4.37;;
30337;SDS011;17143;51.888;5.408;2023-03-01T08:16:46;7.97;;;4.07;;
30337;SDS011;17143;51.888;5.408;2023-03-01T08:31:50;6.53;;;3.97;;
30337;SDS011;17143;51.888;5.408;2023-03-01T08:46:53;6.30;;;4.03;;
30337;SDS011;17143;51.888;5.408;2023-03-01T09:01:55;6.27;;;4.07;;
30337;SDS011;17143;51.888;5.408;2023-03-01T09:16:57;7.23;;;3.97;;
30337;SDS011;17143;51.888;5.408;2023-03-01T09:31:59;6.50;;;3.47;;
30337;SDS011;17143;51.888;5.408;2023-03-01T09:47:01;4.97;;;3.10;;
30337;SDS011;17143;51.888;5.408;2023-03-01T10:02:11;5.17;;;3.20;;
30337;SDS011;17143;51.888;5.408;2023-03-01T10:17:30;5.27;;;3.37;;
30337;SDS011;17143;51.888;5.408;2023-03-01T10:32:38;3.87;;;2.90;;
30337;SDS011;17143;51.888;5.408;2023-03-01T10:47:41;4.70;;;3.63;;
30337;SDS011;17143;51.888;5.408;2023-03-01T11:02:43;7.93;;;3.20;;
30337;SDS011;17143;51.888;5.408;2023-03-01T11:17:45;5.23;;;3.63;;
30337;SDS011;17143;51.888;5.408;2023-03-01T11:32:48;8.03;;;4.47;;
30337;SDS011;17143;51.888;5.408;2023-03-01T11:48:09;6.00;;;3.93;;
30337;SDS011;17143;51.888;5.408;2023-03-01T12:03:35;10.33;;;4.13;;
30337;SDS011;17143;51.888;5.408;2023-03-01T12:34:18;7.80;;;4.93;;
30337;SDS011;17143;51.888;5.408;2023-03-01T12:49:33;7.87;;;4.57;;
30337;SDS011;17143;51.888;5.408;2023-03-01T13:04:45;5.90;;;4.13;;
30337;SDS011;17143;51.888;5.408;2023-03-01T13:19:59;7.13;;;4.40;;
30337;SDS011;17143;51.888;5.408;2023-03-01T13:35:02;9.33;;;5.10;;
30337;SDS011;17143;51.888;5.408;2023-03-01T13:50:05;7.17;;;3.37;;
30337;SDS011;17143;51.888;5.408;2023-03-01T14:05:09;6.90;;;2.90;;
30337;SDS011;17143;51.888;5.408;2023-03-01T14:20:14;5.13;;;3.77;;
30337;SDS011;17143;51.888;5.408;2023-03-01T14:35:20;8.60;;;3.77;;
30337;SDS011;17143;51.888;5.408;2023-03-01T14:50:25;5.17;;;3.60;;
30337;SDS011;17143;51.888;5.408;2023-03-01T15:05:29;7.27;;;3.63;;
30337;SDS011;17143;51.888;5.408;2023-03-01T15:20:35;4.27;;;3.50;;
30337;SDS011;17143;51.888;5.408;2023-03-01T15:35:40;6.73;;;3.80;;
30337;SDS011;17143;51.888;5.408;2023-03-01T15:50:44;4.87;;;3.30;;
30337;SDS011;17143;51.888;5.408;2023-03-01T16:05:56;5.70;;;3.27;;
30337;SDS011;17143;51.888;5.408;2023-03-01T16:20:58;8.10;;;3.80;;
30337;SDS011;17143;51.888;5.408;2023-03-01T16:36:00;5.20;;;2.97;;
30337;SDS011;17143;51.888;5.408;2023-03-01T16:51:02;5.93;;;2.70;;
30337;SDS011;17143;51.888;5.408;2023-03-01T17:06:05;4.87;;;3.20;;
30337;SDS011;17143;51.888;5.408;2023-03-01T17:21:08;6.47;;;2.80;;
30337;SDS011;17143;51.888;5.408;2023-03-01T17:36:11;5.33;;;2.77;;
30337;SDS011;17143;51.888;5.408;2023-03-01T17:51:13;6.60;;;3.57;;
30337;SDS011;17143;51.888;5.408;2023-03-01T18:06:15;10.03;;;3.37;;
30337;SDS011;17143;51.888;5.408;2023-03-01T18:21:18;6.13;;;3.73;;
30337;SDS011;17143;51.888;5.408;2023-03-01T18:36:21;6.77;;;3.73;;
30337;SDS011;17143;51.888;5.408;2023-03-01T18:51:25;6.33;;;4.13;;
30337;SDS011;17143;51.888;5.408;2023-03-01T19:06:29;7.57;;;4.93;;
30337;SDS011;17143;51.888;5.408;2023-03-01T19:21:32;8.40;;;4.47;;
30337;SDS011;17143;51.888;5.408;2023-03-01T19:36:34;7.27;;;3.97;;
30337;SDS011;17143;51.888;5.408;2023-03-01T19:51:36;8.73;;;4.53;;
30337;SDS011;17143;51.888;5.408;2023-03-01T20:06:38;7.93;;;4.37;;
30337;SDS011;17143;51.888;5.408;2023-03-01T20:21:40;10.07;;;4.40;;
30337;SDS011;17143;51.888;5.408;2023-03-01T20:36:42;7.10;;;4.27;;
30337;SDS011;17143;51.888;5.408;2023-03-01T20:51:44;7.83;;;4.40;;
30337;SDS011;17143;51.888;5.408;2023-03-01T21:06:46;5.77;;;3.67;;
30337;SDS011;17143;51.888;5.408;2023-03-01T21:21:48;8.63;;;4.73;;
30337;SDS011;17143;51.888;5.408;2023-03-01T21:36:50;7.10;;;4.07;;
30337;SDS011;17143;51.888;5.408;2023-03-01T21:51:52;6.83;;;3.60;;
30337;SDS011;17143;51.888;5.408;2023-03-01T22:06:55;10.00;;;4.23;;
30337;SDS011;17143;51.888;5.408;2023-03-01T22:21:57;7.43;;;3.97;;
30337;SDS011;17143;51.888;5.408;2023-03-01T22:36:59;7.13;;;4.43;;
30337;SDS011;17143;51.888;5.408;2023-03-01T22:52:01;6.37;;;3.87;;
30337;SDS011;17143;51.888;5.408;2023-03-01T23:07:03;6.03;;;3.63;;
30337;SDS011;17143;51.888;5.408;2023-03-01T23:22:05;10.90;;;4.43;;
30337;SDS011;17143;51.888;5.408;2023-03-01T23:37:06;12.57;;;4.77;;
30337;SDS011;17143;51.888;5.408;2023-03-01T23:52:10;12.87;;;5.53;;
